createdAt,value
2018-08-09T00:00:19.108Z,14.17
2018-08-09T00:02:47.363Z,15.73
2018-08-09T00:05:15.612Z,15.73
2018-08-09T00:07:44.038Z,12.47
2018-08-09T00:10:12.339Z,14.80
2018-08-09T00:12:40.627Z,12.60
2018-08-09T00:15:08.890Z,18.03
2018-08-09T00:17:37.154Z,15.87
2018-08-09T00:20:05.689Z,13.97
2018-08-09T00:22:33.922Z,12.80
2018-08-09T00:25:02.159Z,14.33
2018-08-09T00:27:30.545Z,15.17
2018-08-09T00:29:58.782Z,12.33
2018-08-09T00:32:27.031Z,14.87
2018-08-09T00:34:55.263Z,20.53
2018-08-09T00:37:23.499Z,13.53
2018-08-09T00:39:51.735Z,15.03
2018-08-09T00:42:19.965Z,16.67
2018-08-09T00:44:48.426Z,15.97
2018-08-09T00:47:16.710Z,10.40
2018-08-09T00:49:45.058Z,14.27
2018-08-09T00:52:13.313Z,13.77
2018-08-09T00:54:41.588Z,14.60
2018-08-09T00:57:09.858Z,13.53
2018-08-09T00:59:38.138Z,17.10
2018-08-09T01:02:06.424Z,11.73
2018-08-09T01:04:34.698Z,16.47
2018-08-09T01:07:02.995Z,14.87
2018-08-09T01:09:31.289Z,18.60
2018-08-09T01:11:59.563Z,13.77
2018-08-09T01:14:27.862Z,13.00
2018-08-09T01:17:08.098Z,10.03
2018-08-09T01:19:36.395Z,13.80
2018-08-09T01:22:04.631Z,14.87
2018-08-09T01:24:32.873Z,18.90
2018-08-09T01:27:11.858Z,14.90
2018-08-09T01:29:40.822Z,15.87
2018-08-09T01:32:09.214Z,12.53
2018-08-09T01:34:37.488Z,14.67
2018-08-09T01:37:05.791Z,13.53
2018-08-09T01:39:34.042Z,13.83
2018-08-09T01:42:13.737Z,13.83
2018-08-09T01:44:42.002Z,13.37
2018-08-09T01:47:10.265Z,12.73
2018-08-09T01:49:38.539Z,13.33
2018-08-09T01:52:06.797Z,14.73
2018-08-09T01:54:35.069Z,13.40
2018-08-09T01:57:03.332Z,15.77
2018-08-09T01:59:31.597Z,14.13
2018-08-09T02:02:06.593Z,13.20
2018-08-09T02:04:34.846Z,13.60
2018-08-09T02:09:54.031Z,14.77
2018-08-09T02:12:22.306Z,14.53
2018-08-09T02:14:50.574Z,11.50
2018-08-09T02:17:18.850Z,15.17
2018-08-09T02:19:47.121Z,14.03
2018-08-09T02:22:15.430Z,12.17
2018-08-09T02:24:43.689Z,15.40
2018-08-09T02:27:11.957Z,16.03
2018-08-09T02:29:40.319Z,14.13
2018-08-09T02:32:08.604Z,12.60
2018-08-09T02:34:36.883Z,13.00
2018-08-09T02:37:05.167Z,13.40
2018-08-09T02:39:33.440Z,16.13
2018-08-09T02:42:01.831Z,14.90
2018-08-09T02:44:30.112Z,13.43
2018-08-09T02:46:58.374Z,12.97
2018-08-09T02:49:26.642Z,15.50
2018-08-09T02:51:54.891Z,14.87
2018-08-09T02:54:23.250Z,15.90
2018-08-09T02:56:51.530Z,17.27
2018-08-09T02:59:19.810Z,13.60
2018-08-09T03:01:48.136Z,15.63
2018-08-09T03:04:16.409Z,15.27
2018-08-09T03:06:44.692Z,15.80
2018-08-09T03:09:13.936Z,13.70
2018-08-09T03:11:43.139Z,17.63
2018-08-09T03:14:11.547Z,15.37
2018-08-09T03:16:39.834Z,13.93
2018-08-09T03:19:08.123Z,17.10
2018-08-09T03:21:36.402Z,12.97
2018-08-09T03:24:04.772Z,14.10
2018-08-09T03:26:33.042Z,16.03
2018-08-09T03:29:01.347Z,12.50
2018-08-09T03:31:29.657Z,13.60
2018-08-09T03:33:57.969Z,13.13
2018-08-09T03:36:26.234Z,17.83
2018-08-09T03:38:54.507Z,16.37
2018-08-09T03:41:22.775Z,12.53
2018-08-09T03:43:51.071Z,12.50
2018-08-09T03:46:19.344Z,14.33
2018-08-09T03:48:47.643Z,14.63
2018-08-09T03:51:15.925Z,16.57
2018-08-09T03:53:44.204Z,12.73
2018-08-09T03:56:12.466Z,18.00
2018-08-09T03:58:40.714Z,14.60
2018-08-09T04:01:09.015Z,13.03
2018-08-09T04:03:37.269Z,15.63
2018-08-09T04:06:05.582Z,14.67
2018-08-09T04:08:33.982Z,19.70
2018-08-09T04:11:02.260Z,15.27
2018-08-09T04:13:30.512Z,17.53
2018-08-09T04:15:58.779Z,14.13
2018-08-09T04:18:27.043Z,14.10
2018-08-09T04:20:55.309Z,16.90
2018-08-09T04:23:23.570Z,15.03
2018-08-09T04:25:51.844Z,15.57
2018-08-09T04:28:20.096Z,15.47
2018-08-09T04:30:50.015Z,16.53
2018-08-09T04:33:18.365Z,17.23
2018-08-09T04:35:46.713Z,15.67
2018-08-09T04:38:15.262Z,17.67
2018-08-09T04:40:43.553Z,16.03
2018-08-09T04:43:11.962Z,18.90
2018-08-09T04:45:40.365Z,16.23
2018-08-09T04:48:08.649Z,17.17
2018-08-09T04:50:37.007Z,16.10
2018-08-09T04:53:05.292Z,17.87
2018-08-09T04:55:33.584Z,15.27
2018-08-09T04:58:01.901Z,20.20
2018-08-09T05:00:30.168Z,13.90
2018-08-09T05:02:58.444Z,19.07
2018-08-09T05:05:26.721Z,16.53
2018-08-09T05:14:00.051Z,14.23
2018-08-09T05:16:28.381Z,18.53
2018-08-09T05:18:56.639Z,14.97
2018-08-09T05:21:24.917Z,17.80
2018-08-09T05:23:53.184Z,13.43
2018-08-09T05:26:21.459Z,14.97
2018-08-09T05:28:49.719Z,16.70
2018-08-09T05:31:17.989Z,16.70
2018-08-09T05:33:46.431Z,18.10
2018-08-09T05:36:14.697Z,17.47
2018-08-09T05:38:42.972Z,17.47
2018-08-09T05:41:11.238Z,16.33
2018-08-09T05:43:39.501Z,16.10
2018-08-09T05:46:08.178Z,18.37
2018-08-09T05:48:36.542Z,17.87
2018-08-09T05:51:04.847Z,18.23
2018-08-09T05:53:33.141Z,17.77
2018-08-09T05:56:15.606Z,19.57
2018-08-09T05:58:43.880Z,25.90
2018-08-09T06:01:12.206Z,16.67
2018-08-09T06:03:40.641Z,18.97
2018-08-09T06:06:09.823Z,16.50
2018-08-09T06:08:38.107Z,21.77
2018-08-09T06:11:06.526Z,19.90
2018-08-09T06:13:34.884Z,18.57
2018-08-09T06:16:03.138Z,23.60
2018-08-09T06:18:31.446Z,17.03
2018-08-09T06:20:59.834Z,17.23
2018-08-09T06:23:28.132Z,18.10
2018-08-09T06:25:56.431Z,15.00
2018-08-09T06:28:24.723Z,15.23
2018-08-09T06:30:53.061Z,16.80
2018-08-09T06:33:21.402Z,18.63
2018-08-09T06:35:49.705Z,20.00
2018-08-09T06:38:18.042Z,15.17
2018-08-09T06:40:46.312Z,17.10
2018-08-09T06:43:14.591Z,15.67
2018-08-09T06:45:42.890Z,16.53
2018-08-09T06:48:11.279Z,19.93
2018-08-09T06:50:39.582Z,14.03
2018-08-09T06:53:07.978Z,13.63
2018-08-09T06:58:26.940Z,13.43
2018-08-09T07:03:46.359Z,13.90
2018-08-09T07:06:14.652Z,15.73
2018-08-09T07:08:42.953Z,19.53
2018-08-09T07:11:11.257Z,16.37
2018-08-09T07:13:39.535Z,17.53
2018-08-09T07:16:07.844Z,14.40
2018-08-09T07:18:36.144Z,15.57
2018-08-09T07:21:04.422Z,16.13
2018-08-09T07:23:32.790Z,16.67
2018-08-09T07:26:01.081Z,15.63
2018-08-09T07:28:32.218Z,15.90
2018-08-09T07:31:00.538Z,15.70
2018-08-09T07:33:28.838Z,15.88
2018-08-09T07:35:57.394Z,17.23
2018-08-09T07:38:26.564Z,15.43
2018-08-09T07:40:55.117Z,9.93
2018-08-09T07:43:23.494Z,13.72
2018-08-09T07:45:51.781Z,17.27
2018-08-09T07:48:20.978Z,16.62
2018-08-09T07:50:49.488Z,14.50
2018-08-09T07:53:18.476Z,18.92
2018-08-09T07:55:47.387Z,22.87
2018-08-09T07:58:16.511Z,18.95
2018-08-09T08:00:45.447Z,14.53
2018-08-09T08:03:14.483Z,16.32
2018-08-09T08:05:43.980Z,17.15
2018-08-09T08:08:12.946Z,15.55
2018-08-09T08:10:42.017Z,11.12
2018-08-09T08:13:11.219Z,14.40
2018-08-09T08:15:40.194Z,11.83
2018-08-09T08:18:09.201Z,13.75
2018-08-09T08:20:38.212Z,15.58
2018-08-09T08:23:07.280Z,12.28
2018-08-09T08:25:36.299Z,13.30
2018-08-09T08:28:05.542Z,17.55
2018-08-09T08:30:34.753Z,10.75
2018-08-09T08:33:04.335Z,11.97
2018-08-09T08:35:33.310Z,11.12
2018-08-09T08:38:02.486Z,12.95
2018-08-09T08:40:31.810Z,15.53
2018-08-09T08:43:01.417Z,12.28
2018-08-09T08:45:30.324Z,12.20
2018-08-09T08:47:59.200Z,11.03
2018-08-09T08:50:28.124Z,13.75
2018-08-09T08:52:57.126Z,13.75
2018-08-09T08:55:26.305Z,13.15
2018-08-09T08:57:55.366Z,9.00
2018-08-09T09:00:24.167Z,11.90
2018-08-09T09:02:52.946Z,13.75
2018-08-09T09:05:22.036Z,10.68
2018-08-09T09:08:02.335Z,11.97
2018-08-09T09:10:32.537Z,12.05
2018-08-09T09:13:01.965Z,9.33
2018-08-09T09:15:30.891Z,13.93
2018-08-09T09:18:00.103Z,11.05
2018-08-09T09:20:28.942Z,10.75
2018-08-09T09:22:57.985Z,10.43
2018-08-09T09:25:26.977Z,8.18
2018-08-09T09:27:55.944Z,10.78
2018-08-09T09:30:24.843Z,10.65
2018-08-09T09:32:53.691Z,12.30
2018-08-09T09:35:22.536Z,8.40
2018-08-09T09:37:51.648Z,8.38
2018-08-09T09:40:20.564Z,8.28
2018-08-09T09:42:49.420Z,7.20
2018-08-09T09:45:18.297Z,7.65
2018-08-09T09:47:47.159Z,8.08
2018-08-09T09:50:16.123Z,9.33
2018-08-09T09:52:45.337Z,6.03
2018-08-09T09:55:14.249Z,6.95
2018-08-09T09:57:43.212Z,10.10
2018-08-09T10:00:17.481Z,9.38
2018-08-09T10:02:46.759Z,9.48
2018-08-09T10:05:16.128Z,8.20
2018-08-09T10:07:45.183Z,6.78
2018-08-09T10:10:14.663Z,7.08
2018-08-09T10:12:44.048Z,9.83
2018-08-09T10:15:13.114Z,10.58
2018-08-09T10:17:41.990Z,6.75
2018-08-09T10:20:11.018Z,12.13
2018-08-09T10:22:39.746Z,7.15
2018-08-09T10:25:09.187Z,8.73
2018-08-09T10:27:38.266Z,10.70
2018-08-09T10:30:07.976Z,9.13
2018-08-09T10:32:37.030Z,9.50
2018-08-09T10:35:06.020Z,7.42
2018-08-09T10:37:34.985Z,6.40
2018-08-09T10:40:04.094Z,7.95
2018-08-09T10:42:33.102Z,9.75
2018-08-09T10:45:02.020Z,9.55
2018-08-09T10:47:31.027Z,9.65
2018-08-09T10:49:59.906Z,7.22
2018-08-09T10:52:28.766Z,9.53
2018-08-09T10:54:57.645Z,8.25
2018-08-09T10:57:25.958Z,6.08
2018-08-09T10:59:55.135Z,9.58
2018-08-09T11:02:24.450Z,6.10
2018-08-09T11:04:53.322Z,10.88
2018-08-09T11:07:22.553Z,6.15
2018-08-09T11:09:51.544Z,11.75
2018-08-09T11:12:22.374Z,5.87
2018-08-09T11:14:51.273Z,6.42
2018-08-09T11:17:20.207Z,9.60
2018-08-09T11:19:49.163Z,8.05
2018-08-09T11:22:17.875Z,7.37
2018-08-09T11:24:46.785Z,7.37
2018-08-09T11:27:15.641Z,6.90
2018-08-09T11:29:44.613Z,10.80
2018-08-09T11:32:13.581Z,7.87
2018-08-09T11:34:42.430Z,8.35
2018-08-09T11:37:11.331Z,7.03
2018-08-09T11:39:40.156Z,6.37
2018-08-09T11:42:08.984Z,8.45
2018-08-09T11:44:38.349Z,8.98
2018-08-09T11:47:09.307Z,9.83
2018-08-09T11:49:38.093Z,9.98
2018-08-09T11:52:07.139Z,13.03
2018-08-09T11:54:36.137Z,9.20
2018-08-09T11:57:05.061Z,5.55
2018-08-09T11:59:34.215Z,8.80
2018-08-09T12:02:03.260Z,7.80
2018-08-09T12:04:32.864Z,7.67
2018-08-09T12:07:02.081Z,9.98
2018-08-09T12:09:30.994Z,4.60
2018-08-09T12:12:00.081Z,7.35
2018-08-09T12:14:29.339Z,7.67
2018-08-09T12:19:49.800Z,8.90
2018-08-09T12:22:18.632Z,6.55
2018-08-09T12:24:47.574Z,6.90
2018-08-09T12:27:16.490Z,6.62
2018-08-09T12:29:45.519Z,4.17
2018-08-09T12:32:14.760Z,6.08
2018-08-09T12:34:43.897Z,6.12
2018-08-09T12:37:12.956Z,4.65
2018-08-09T12:39:41.991Z,5.30
2018-08-09T12:42:10.964Z,5.67
2018-08-09T12:44:40.234Z,6.50
2018-08-09T12:47:09.403Z,4.87
2018-08-09T12:49:38.379Z,4.37
2018-08-09T12:52:07.656Z,7.58
2018-08-09T12:54:36.676Z,4.15
2018-08-09T12:57:07.211Z,12.28
2018-08-09T12:59:36.363Z,5.97
2018-08-09T13:02:05.324Z,3.92
2018-08-09T13:04:34.196Z,4.03
2018-08-09T13:07:03.341Z,3.60
2018-08-09T13:09:32.317Z,5.28
2018-08-09T13:12:01.711Z,4.03
2018-08-09T13:14:30.872Z,4.37
2018-08-09T13:16:59.924Z,7.67
2018-08-09T13:19:35.281Z,6.12
2018-08-09T13:22:03.647Z,5.25
2018-08-09T13:24:33.026Z,5.37
2018-08-09T13:27:02.169Z,4.40
2018-08-09T13:29:31.455Z,5.62
2018-08-09T13:32:00.739Z,6.58
2018-08-09T13:34:29.702Z,8.20
2018-08-09T13:36:58.770Z,4.30
2018-08-09T13:39:27.752Z,5.65
2018-08-09T13:41:56.902Z,4.30
2018-08-09T13:44:26.030Z,6.12
2018-08-09T13:46:55.238Z,3.92
2018-08-09T13:49:24.444Z,4.50
2018-08-09T13:51:53.565Z,4.20
2018-08-09T13:54:22.861Z,4.87
2018-08-09T13:56:51.910Z,5.10
2018-08-09T13:59:21.028Z,4.83
2018-08-09T14:01:50.149Z,6.22
2018-08-09T14:04:18.683Z,5.00
2018-08-09T14:06:47.084Z,5.97
2018-08-09T14:09:16.228Z,6.22
2018-08-09T14:11:45.113Z,8.58
2018-08-09T14:14:14.147Z,4.45
2018-08-09T14:16:43.103Z,4.28
2018-08-09T14:19:11.910Z,6.00
2018-08-09T14:21:40.996Z,4.65
2018-08-09T14:24:10.382Z,6.90
2018-08-09T14:26:39.585Z,3.33
2018-08-09T14:29:09.215Z,5.55
2018-08-09T14:31:38.826Z,4.55
2018-08-09T14:34:08.205Z,7.78
2018-08-09T14:36:37.197Z,4.45
2018-08-09T14:39:09.275Z,7.42
2018-08-09T14:41:38.651Z,5.08
2018-08-09T14:44:07.969Z,4.72
2018-08-09T14:46:36.935Z,4.67
2018-08-09T14:49:05.847Z,3.75
2018-08-09T14:51:34.948Z,4.20
2018-08-09T14:54:04.064Z,4.00
2018-08-09T14:56:33.080Z,4.85
2018-08-09T14:59:02.359Z,3.85
2018-08-09T15:01:31.416Z,6.87
2018-08-09T15:04:00.477Z,6.92
2018-08-09T15:06:29.356Z,5.40
2018-08-09T15:08:58.463Z,3.85
2018-08-09T15:11:27.317Z,7.75
2018-08-09T15:13:56.417Z,4.95
2018-08-09T15:16:25.412Z,6.03
2018-08-09T15:18:54.528Z,8.23
2018-08-09T15:21:23.515Z,5.78
2018-08-09T15:23:52.478Z,7.47
2018-08-09T15:26:22.305Z,7.90
2018-08-09T15:28:51.222Z,97.57
2018-08-09T15:31:19.846Z,94.58
2018-08-09T15:33:48.893Z,67.00
2018-08-09T15:36:17.932Z,36.42
2018-08-09T15:38:46.896Z,24.57
2018-08-09T15:41:16.030Z,18.27
2018-08-09T15:43:44.937Z,23.65
2018-08-09T15:46:13.870Z,10.23
2018-08-09T15:48:42.911Z,13.97
2018-08-09T15:51:12.208Z,10.70
2018-08-09T15:53:40.497Z,16.33
2018-08-09T15:56:09.179Z,11.23
2018-08-09T15:58:38.031Z,14.10
2018-08-09T16:01:06.950Z,13.88
2018-08-09T16:03:35.740Z,13.60
2018-08-09T16:06:04.773Z,11.67
2018-08-09T16:08:33.086Z,9.27
2018-08-09T16:11:01.365Z,9.97
2018-08-09T16:13:29.627Z,8.30
2018-08-09T16:15:57.913Z,14.87
2018-08-09T16:18:26.183Z,8.50
2018-08-09T16:20:54.466Z,8.70
2018-08-09T16:23:22.738Z,7.77
2018-08-09T16:25:51.100Z,8.97
2018-08-09T16:28:19.811Z,6.50
2018-08-09T16:30:48.077Z,8.80
2018-08-09T16:33:17.014Z,5.43
2018-08-09T16:35:45.315Z,7.67
2018-08-09T16:38:13.615Z,7.13
2018-08-09T16:40:42.071Z,10.20
2018-08-09T16:43:10.378Z,5.92
2018-08-09T16:45:38.806Z,7.00
2018-08-09T16:48:07.136Z,6.73
2018-08-09T16:50:35.633Z,7.83
2018-08-09T16:53:03.918Z,5.13
2018-08-09T16:55:32.205Z,7.10
2018-08-09T16:58:00.502Z,7.53
2018-08-09T17:03:19.776Z,7.87
2018-08-09T17:05:48.037Z,7.30
2018-08-09T17:08:16.379Z,5.67
2018-08-09T17:10:44.656Z,7.90
2018-08-09T17:13:13.082Z,8.30
2018-08-09T17:15:41.337Z,6.40
2018-08-09T17:18:09.636Z,5.80
2018-08-09T17:20:37.891Z,8.67
2018-08-09T17:23:06.294Z,8.97
2018-08-09T17:25:34.584Z,9.50
2018-08-09T17:28:02.854Z,9.27
2018-08-09T17:30:31.124Z,7.73
2018-08-09T17:32:59.538Z,5.80
2018-08-09T17:35:27.809Z,5.53
2018-08-09T17:37:56.242Z,5.33
2018-08-09T17:40:29.802Z,4.37
2018-08-09T17:42:58.971Z,8.07
2018-08-09T17:45:29.636Z,9.53
2018-08-09T17:47:58.087Z,9.03
2018-08-09T17:50:26.374Z,5.17
2018-08-09T17:52:56.232Z,5.67
2018-08-09T17:55:24.480Z,7.10
2018-08-09T17:57:52.766Z,9.67
2018-08-09T18:00:24.368Z,4.93
2018-08-09T18:02:53.069Z,6.43
2018-08-09T18:05:21.470Z,7.17
2018-08-09T18:07:49.900Z,7.80
2018-08-09T18:10:31.074Z,5.57
2018-08-09T18:12:59.380Z,6.13
2018-08-09T18:15:28.985Z,3.87
2018-08-09T18:17:57.847Z,6.63
2018-08-09T18:20:28.189Z,9.17
2018-08-09T18:22:56.766Z,7.90
2018-08-09T18:25:25.184Z,9.97
2018-08-09T18:27:53.530Z,4.60
2018-08-09T18:30:21.935Z,4.60
2018-08-09T18:32:50.350Z,6.63
2018-08-09T18:35:19.370Z,4.37
2018-08-09T18:37:47.723Z,4.60
2018-08-09T18:40:17.626Z,6.03
2018-08-09T18:42:46.091Z,6.07
2018-08-09T18:45:14.388Z,7.33
2018-08-09T18:47:42.679Z,7.47
2018-08-09T18:50:13.945Z,5.83
2018-08-09T18:52:42.510Z,4.97
2018-08-09T18:55:11.551Z,8.23
2018-08-09T18:57:40.194Z,4.80
2018-08-09T19:00:13.044Z,7.43
2018-08-09T19:02:41.314Z,6.70
2018-08-09T19:05:09.835Z,9.53
2018-08-09T19:07:38.333Z,5.90
2018-08-09T19:10:09.876Z,9.37
2018-08-09T19:12:38.258Z,9.23
2018-08-09T19:15:07.481Z,3.17
2018-08-09T19:17:35.978Z,6.17
2018-08-09T19:20:07.444Z,7.57
2018-08-09T19:22:36.041Z,4.87
2018-08-09T19:25:05.471Z,3.90
2018-08-09T19:27:33.819Z,6.93
2018-08-09T19:30:02.130Z,5.07
2018-08-09T19:32:30.403Z,5.07
2018-08-09T19:34:58.961Z,9.13
2018-08-09T19:37:27.265Z,3.87
2018-08-09T19:39:55.522Z,4.37
2018-08-09T19:42:24.344Z,5.17
2018-08-09T19:44:53.326Z,7.37
2018-08-09T19:47:21.674Z,5.40
2018-08-09T19:49:49.957Z,4.37
2018-08-09T19:52:18.287Z,3.67
2018-08-09T19:54:46.632Z,2.83
2018-08-09T19:57:15.233Z,3.80
2018-08-09T19:59:43.930Z,3.97
2018-08-09T20:02:12.207Z,7.40
2018-08-09T20:04:40.468Z,3.97
2018-08-09T20:07:08.773Z,3.70
2018-08-09T20:09:37.034Z,8.50
2018-08-09T20:12:05.846Z,5.13
2018-08-09T20:14:34.289Z,4.03
2018-08-09T20:17:02.730Z,3.83
2018-08-09T20:19:31.279Z,5.20
2018-08-09T20:22:00.506Z,4.77
2018-08-09T20:24:28.872Z,5.77
2018-08-09T20:26:57.151Z,3.53
2018-08-09T20:29:25.430Z,4.23
2018-08-09T20:31:54.837Z,6.57
2018-08-09T20:34:23.102Z,5.63
2018-08-09T20:36:51.525Z,4.90
2018-08-09T20:39:19.826Z,4.70
2018-08-09T20:41:48.339Z,3.90
2018-08-09T20:44:16.676Z,3.97
2018-08-09T20:46:45.189Z,5.63
2018-08-09T20:49:13.652Z,3.30
2018-08-09T20:51:41.926Z,4.07
2018-08-09T20:54:11.048Z,3.83
2018-08-09T20:56:39.708Z,5.90
2018-08-09T20:59:07.979Z,4.73
2018-08-09T21:01:36.284Z,4.03
2018-08-09T21:04:04.843Z,4.77
2018-08-09T21:06:33.126Z,4.03
2018-08-09T21:09:01.387Z,3.13
2018-08-09T21:11:29.674Z,3.87
2018-08-09T21:13:58.557Z,2.83
2018-08-09T21:16:27.019Z,7.80
2018-08-09T21:18:55.386Z,4.37
2018-08-09T21:21:23.662Z,4.80
2018-08-09T21:23:52.094Z,4.23
2018-08-09T21:26:20.587Z,4.77
2018-08-09T21:28:48.943Z,4.13
2018-08-09T21:31:17.202Z,3.57
2018-08-09T21:33:45.457Z,4.03
2018-08-09T21:36:25.496Z,7.27
2018-08-09T21:38:53.874Z,3.87
2018-08-09T21:41:22.120Z,5.43
2018-08-09T21:43:50.954Z,5.37
2018-08-09T21:46:19.219Z,3.33
2018-08-09T21:48:47.494Z,4.27
2018-08-09T21:51:16.053Z,3.93
2018-08-09T21:53:44.356Z,4.73
2018-08-09T21:56:12.666Z,5.57
2018-08-09T21:58:40.946Z,5.03
2018-08-09T22:01:09.678Z,4.93
2018-08-09T22:03:38.622Z,3.20
2018-08-09T22:06:12.254Z,6.43
2018-08-09T22:08:45.839Z,5.17
2018-08-09T22:11:19.604Z,8.10
2018-08-09T22:13:53.318Z,5.20
2018-08-09T22:16:27.142Z,4.43
2018-08-09T22:19:00.854Z,6.27
2018-08-09T22:21:34.662Z,4.53
2018-08-09T22:24:03.055Z,5.33
2018-08-09T22:26:31.326Z,3.33
2018-08-09T22:28:59.602Z,4.00
2018-08-09T22:31:27.870Z,4.60
2018-08-09T22:33:56.162Z,5.20
2018-08-09T22:36:24.442Z,4.27
2018-08-09T22:38:52.814Z,3.60
2018-08-09T22:41:21.075Z,4.10
2018-08-09T22:43:49.371Z,4.60
2018-08-09T22:46:17.638Z,2.80
2018-08-09T22:48:45.907Z,6.37
2018-08-09T22:51:14.294Z,2.60
2018-08-09T22:53:42.569Z,3.53
2018-08-09T22:56:29.935Z,3.47
2018-08-09T22:58:58.196Z,4.47
2018-08-09T23:01:26.466Z,3.37
2018-08-09T23:03:54.737Z,4.33
2018-08-09T23:06:23.005Z,4.77
2018-08-09T23:08:51.300Z,3.73
2018-08-09T23:11:19.925Z,4.40
2018-08-09T23:13:48.186Z,2.80
2018-08-09T23:16:16.453Z,3.40
2018-08-09T23:18:44.758Z,3.97
2018-08-09T23:21:13.007Z,5.00
2018-08-09T23:23:41.301Z,4.00
2018-08-09T23:26:09.567Z,3.17
2018-08-09T23:28:37.831Z,2.77
2018-08-09T23:31:06.111Z,4.67
2018-08-09T23:33:34.398Z,5.00
2018-08-09T23:36:02.682Z,5.37
2018-08-09T23:38:30.952Z,2.40
2018-08-09T23:40:59.308Z,2.53
2018-08-09T23:43:27.586Z,4.30
2018-08-09T23:45:55.863Z,2.43
2018-08-09T23:48:24.153Z,1.70
2018-08-09T23:50:52.456Z,2.03
2018-08-09T23:53:20.754Z,2.17
2018-08-09T23:55:49.042Z,2.50
2018-08-09T23:58:17.347Z,2.00
